Time;durP1;ratioP1;P1;durP2;ratioP2;P2;SDS_P1;SDS_P2;PMS_P1;PMS_P2;Temp;Humidity;BMP_temperature;BMP_pressure;BME280_temperature;BME280_humidity;BME280_pressure;Samples;Min_cycle;Max_cycle;Signal;HPM_P1;HPM_P2
2022/05/12 00:01:14;;;;;;;1.40;1.30;;;;;;;;;;4164026;34;20137;-64
2022/05/12 00:34:48;;;;;;;2.72;1.70;;;;;;;;;;4132974;34;20547;-61
2022/05/12 00:37:14;;;;;;;2.28;1.60;;;;;;;;;;4136460;34;20556;-61
2022/05/12 00:39:40;;;;;;;2.60;1.75;;;;;;;;;;4124026;34;20124;-61
2022/05/12 00:42:06;;;;;;;2.58;1.50;;;;;;;;;;4136997;34;20123;-60
2022/05/12 00:44:32;;;;;;;1.83;1.48;;;;;;;;;;4136358;34;20103;-61
2022/05/12 00:46:58;;;;;;;1.83;1.73;;;;;;;;;;4136706;34;20460;-61
2022/05/12 00:49:35;;;;;;;1.60;1.50;;;;;;;;;;4136588;34;20115;-61
2022/05/12 00:52:02;;;;;;;2.22;1.48;;;;;;;;;;4135222;34;20115;-61
2022/05/12 00:54:48;;;;;;;2.47;2.20;;;;;;;;;;4135396;34;20139;-61
2022/05/12 00:57:23;;;;;;;1.50;1.40;;;;;;;;;;4136424;34;20534;-61
2022/05/12 00:59:49;;;;;;;1.37;1.30;;;;;;;;;;4123958;34;20200;-61
2022/05/12 01:02:17;;;;;;;1.60;1.50;;;;;;;;;;4136408;34;20119;-61
2022/05/12 01:04:44;;;;;;;2.15;1.70;;;;;;;;;;4124097;34;20108;-61
2022/05/12 01:07:10;;;;;;;2.08;1.55;;;;;;;;;;4134593;34;20107;-64
2022/05/12 01:09:36;;;;;;;1.92;1.70;;;;;;;;;;4136412;34;20114;-64
2022/05/12 01:12:02;;;;;;;3.45;1.80;;;;;;;;;;4136535;34;20438;-64
2022/05/12 01:14:28;;;;;;;3.22;1.73;;;;;;;;;;4136072;34;20310;-64
2022/05/12 01:16:57;;;;;;;4.20;1.50;;;;;;;;;;4136447;34;20104;-64
2022/05/12 01:19:26;;;;;;;2.42;1.62;;;;;;;;;;4123893;34;20142;-64
2022/05/12 01:21:53;;;;;;;3.75;1.60;;;;;;;;;;4123909;34;20115;-64
2022/05/12 01:24:21;;;;;;;2.70;1.73;;;;;;;;;;4136250;34;20119;-64
2022/05/12 01:26:47;;;;;;;3.03;1.67;;;;;;;;;;4136277;34;20104;-64
2022/05/12 01:29:14;;;;;;;2.08;1.60;;;;;;;;;;4136015;34;20484;-64
2022/05/12 01:31:40;;;;;;;2.15;1.92;;;;;;;;;;4123852;34;20567;-63
2022/05/12 01:34:08;;;;;;;2.83;1.60;;;;;;;;;;4136082;34;20128;-63
2022/05/12 01:36:34;;;;;;;4.37;3.97;;;;;;;;;;4136334;34;20088;-63
2022/05/12 01:39:01;;;;;;;3.37;2.17;;;;;;;;;;4123794;34;20119;-63
2022/05/12 01:41:27;;;;;;;3.33;2.80;;;;;;;;;;4136037;34;20116;-62
2022/05/12 01:43:53;;;;;;;5.43;3.25;;;;;;;;;;4136414;34;20205;-60
2022/05/12 01:46:19;;;;;;;6.68;3.20;;;;;;;;;;4135990;34;20134;-60
2022/05/12 01:48:45;;;;;;;9.30;4.90;;;;;;;;;;4135958;34;20123;-60
2022/05/12 01:51:11;;;;;;;9.95;3.80;;;;;;;;;;4135964;34;20143;-60
2022/05/12 01:53:37;;;;;;;7.00;3.42;;;;;;;;;;4134777;34;20100;-59
2022/05/12 01:56:05;;;;;;;7.30;3.00;;;;;;;;;;4136184;34;20118;-59
2022/05/12 01:58:31;;;;;;;7.10;2.25;;;;;;;;;;4136023;34;20516;-59
2022/05/12 02:00:57;;;;;;;2.67;2.00;;;;;;;;;;4135874;34;20115;-58
2022/05/12 02:03:23;;;;;;;4.47;2.30;;;;;;;;;;4135896;34;20119;-59
2022/05/12 02:05:50;;;;;;;3.35;2.20;;;;;;;;;;4135812;34;20099;-59
2022/05/12 02:08:17;;;;;;;1.80;1.70;;;;;;;;;;4136109;34;20104;-62
2022/05/12 02:10:47;;;;;;;1.52;1.42;;;;;;;;;;4135738;34;20541;-59
2022/05/12 02:13:14;;;;;;;1.77;1.67;;;;;;;;;;4136119;34;20127;-59
2022/05/12 02:15:41;;;;;;;1.70;1.60;;;;;;;;;;4135815;34;20111;-59
2022/05/12 02:18:07;;;;;;;3.37;1.75;;;;;;;;;;4136365;34;20586;-59
2022/05/12 02:20:34;;;;;;;4.32;1.60;;;;;;;;;;4137709;34;20540;-59
2022/05/12 02:23:00;;;;;;;3.12;2.05;;;;;;;;;;4137754;34;20119;-58
2022/05/12 02:25:26;;;;;;;3.10;1.70;;;;;;;;;;4137668;34;20110;-60
2022/05/12 02:27:52;;;;;;;1.98;1.60;;;;;;;;;;4136257;34;20116;-59
2022/05/12 02:30:22;;;;;;;1.65;1.55;;;;;;;;;;4137832;34;20130;-59
2022/05/12 02:32:48;;;;;;;2.30;1.80;;;;;;;;;;4137632;34;20804;-59
2022/05/12 02:35:14;;;;;;;2.22;1.90;;;;;;;;;;4137693;34;20206;-59
2022/05/12 02:37:40;;;;;;;4.28;2.12;;;;;;;;;;4137517;34;20116;-58
2022/05/12 02:40:08;;;;;;;2.85;2.53;;;;;;;;;;4137604;34;20111;-59
2022/05/12 02:42:34;;;;;;;5.37;3.30;;;;;;;;;;4137892;34;20107;-59
2022/05/12 02:45:00;;;;;;;5.28;3.40;;;;;;;;;;4137721;34;20111;-58
2022/05/12 02:47:26;;;;;;;7.40;3.95;;;;;;;;;;4137719;34;20175;-59
2022/05/12 02:49:52;;;;;;;9.27;4.10;;;;;;;;;;4137539;34;20103;-59
2022/05/12 02:52:18;;;;;;;8.60;4.07;;;;;;;;;;4137526;34;20119;-59
2022/05/12 02:54:44;;;;;;;9.90;3.80;;;;;;;;;;4137417;34;20111;-59
2022/05/12 02:57:10;;;;;;;12.18;3.30;;;;;;;;;;4137485;34;20127;-59
2022/05/12 02:59:37;;;;;;;9.02;3.45;;;;;;;;;;4125012;34;20107;-59
2022/05/12 03:02:03;;;;;;;5.05;3.50;;;;;;;;;;4137531;34;20099;-59
2022/05/12 03:04:29;;;;;;;9.95;3.78;;;;;;;;;;4135820;34;20163;-59
2022/05/12 03:06:55;;;;;;;14.55;3.28;;;;;;;;;;4137704;34;20501;-59
2022/05/12 03:09:21;;;;;;;20.12;3.37;;;;;;;;;;4137532;34;20131;-58
2022/05/12 03:11:48;;;;;;;9.85;3.22;;;;;;;;;;4136799;34;20139;-58
2022/05/12 03:14:14;;;;;;;6.50;2.47;;;;;;;;;;4136112;34;20111;-60
2022/05/12 03:16:40;;;;;;;4.47;2.60;;;;;;;;;;4137180;34;20464;-59
2022/05/12 03:19:06;;;;;;;3.55;2.10;;;;;;;;;;4114635;34;20102;-59
2022/05/12 03:21:32;;;;;;;4.68;2.30;;;;;;;;;;4140068;34;20411;-60
2022/05/12 03:23:58;;;;;;;3.17;1.90;;;;;;;;;;4139885;34;20103;-59
2022/05/12 03:26:24;;;;;;;3.00;1.60;;;;;;;;;;4139664;34;20206;-60
2022/05/12 03:28:50;;;;;;;4.15;2.10;;;;;;;;;;4137891;34;20122;-59
2022/05/12 03:31:16;;;;;;;2.58;1.70;;;;;;;;;;4136956;34;20476;-59
2022/05/12 03:33:43;;;;;;;1.65;1.50;;;;;;;;;;4137097;34;20130;-61
2022/05/12 03:36:09;;;;;;;2.03;1.55;;;;;;;;;;4124566;34;20281;-62
2022/05/12 03:38:35;;;;;;;3.60;2.60;;;;;;;;;;4136915;34;20143;-62
2022/05/12 03:41:01;;;;;;;9.18;4.62;;;;;;;;;;4137585;34;20532;-62
2022/05/12 03:46:12;;;;;;;7.95;4.78;;;;;;;;;;4136125;34;20096;-63
2022/05/12 03:48:39;;;;;;;9.52;5.87;;;;;;;;;;4135878;34;20190;-63
2022/05/12 03:51:06;;;;;;;8.07;4.47;;;;;;;;;;4137151;34;20118;-63
2022/05/12 03:53:32;;;;;;;4.78;2.95;;;;;;;;;;4124410;34;20449;-65
2022/05/12 03:55:59;;;;;;;4.03;2.33;;;;;;;;;;4136936;34;20091;-63
2022/05/12 03:58:25;;;;;;;2.58;2.00;;;;;;;;;;4124310;34;20277;-61
2022/05/12 04:00:52;;;;;;;4.43;1.90;;;;;;;;;;4136766;34;20102;-63
2022/05/12 04:03:18;;;;;;;2.30;1.55;;;;;;;;;;4136957;34;20131;-65
2022/05/12 04:05:44;;;;;;;2.12;1.60;;;;;;;;;;4137030;34;20118;-64
2022/05/12 04:08:10;;;;;;;3.10;1.60;;;;;;;;;;4124170;34;20130;-61
2022/05/12 04:10:37;;;;;;;1.85;1.55;;;;;;;;;;4134603;34;20120;-59
2022/05/12 04:13:03;;;;;;;1.73;1.60;;;;;;;;;;4124776;34;20110;-61
2022/05/12 04:15:29;;;;;;;4.28;1.70;;;;;;;;;;4124149;34;20130;-60
2022/05/12 04:17:58;;;;;;;1.80;1.62;;;;;;;;;;4124280;34;20131;-61
2022/05/12 04:20:25;;;;;;;2.50;2.00;;;;;;;;;;4136732;34;20124;-61
2022/05/12 04:22:51;;;;;;;4.53;2.58;;;;;;;;;;4124177;34;20128;-60
2022/05/12 04:25:17;;;;;;;2.97;1.90;;;;;;;;;;4135896;34;20104;-60
2022/05/12 04:27:43;;;;;;;3.67;2.05;;;;;;;;;;4136272;34;20196;-61
2022/05/12 04:30:12;;;;;;;2.85;2.00;;;;;;;;;;4136627;34;20104;-59
2022/05/12 04:32:38;;;;;;;4.95;2.00;;;;;;;;;;4123973;34;20114;-61
2022/05/12 04:35:12;;;;;;;2.78;2.20;;;;;;;;;;4136817;34;20103;-61
2022/05/12 04:37:47;;;;;;;5.50;2.70;;;;;;;;;;4136530;34;20452;-58
2022/05/12 04:40:31;;;;;;;3.95;2.80;;;;;;;;;;4136565;34;20119;-58
2022/05/12 04:42:59;;;;;;;3.80;2.97;;;;;;;;;;4136671;34;20119;-61
2022/05/12 04:45:27;;;;;;;4.00;2.83;;;;;;;;;;4124320;34;20509;-58
2022/05/12 04:47:53;;;;;;;6.68;3.03;;;;;;;;;;4136799;34;20116;-58
2022/05/12 04:50:26;;;;;;;5.40;3.35;;;;;;;;;;4136586;34;20464;-58
2022/05/12 04:52:52;;;;;;;6.80;3.30;;;;;;;;;;4135040;34;20114;-58
2022/05/12 04:55:19;;;;;;;3.78;2.50;;;;;;;;;;4136502;34;20096;-59
2022/05/12 04:57:47;;;;;;;3.97;2.17;;;;;;;;;;4136351;34;20100;-58
2022/05/12 05:00:32;;;;;;;6.20;2.50;;;;;;;;;;4124123;34;20183;-59
2022/05/12 05:02:58;;;;;;;2.42;2.20;;;;;;;;;;4136284;34;20212;-58
2022/05/12 05:05:24;;;;;;;4.72;2.22;;;;;;;;;;4136232;34;20220;-56
2022/05/12 05:07:50;;;;;;;2.95;1.70;;;;;;;;;;4123796;34;20116;-59
2022/05/12 05:10:17;;;;;;;2.37;1.50;;;;;;;;;;4136311;34;20111;-58
2022/05/12 05:12:43;;;;;;;1.48;1.37;;;;;;;;;;4136223;34;20457;-58
2022/05/12 05:15:14;;;;;;;1.30;1.20;;;;;;;;;;4136321;34;20118;-58
2022/05/12 05:17:41;;;;;;;1.30;1.20;;;;;;;;;;4136161;34;20119;-58
2022/05/12 05:20:09;;;;;;;1.25;1.17;;;;;;;;;;4136204;34;20122;-59
2022/05/12 05:22:35;;;;;;;1.95;1.40;;;;;;;;;;4136178;34;20196;-59
2022/05/12 05:25:01;;;;;;;1.15;1.00;;;;;;;;;;4136268;34;20087;-58
2022/05/12 05:27:27;;;;;;;1.30;1.20;;;;;;;;;;4123548;34;20099;-58
2022/05/12 05:29:53;;;;;;;1.73;1.42;;;;;;;;;;4136060;34;20493;-59
2022/05/12 05:32:20;;;;;;;1.73;1.50;;;;;;;;;;4136011;34;20110;-59
2022/05/12 05:34:46;;;;;;;2.75;1.40;;;;;;;;;;4136061;34;20208;-59
2022/05/12 05:37:12;;;;;;;1.42;1.27;;;;;;;;;;4134913;34;20120;-58
2022/05/12 05:39:38;;;;;;;1.30;1.20;;;;;;;;;;4136046;34;20503;-58
2022/05/12 05:42:08;;;;;;;1.45;1.35;;;;;;;;;;4136096;34;20190;-59
2022/05/12 05:44:35;;;;;;;1.50;1.40;;;;;;;;;;4123741;34;20131;-59
2022/05/12 05:47:01;;;;;;;1.30;1.20;;;;;;;;;;4135989;34;20620;-58
2022/05/12 05:49:28;;;;;;;1.30;1.20;;;;;;;;;;4135890;34;20499;-59
2022/05/12 05:54:39;;;;;;;1.65;1.37;;;;;;;;;;4140225;34;20130;-60
2022/05/12 05:57:05;;;;;;;1.45;1.30;;;;;;;;;;4140363;34;20174;-61
2022/05/12 05:59:31;;;;;;;1.67;1.42;;;;;;;;;;4139217;34;20103;-58
2022/05/12 06:01:57;;;;;;;1.40;1.30;;;;;;;;;;4127804;34;20126;-59
2022/05/12 06:04:23;;;;;;;1.48;1.30;;;;;;;;;;4140275;34;20467;-60
2022/05/12 06:06:49;;;;;;;1.50;1.37;;;;;;;;;;4140182;34;20138;-59
2022/05/12 06:09:16;;;;;;;1.48;1.30;;;;;;;;;;4140389;34;20127;-60
2022/05/12 06:11:44;;;;;;;1.45;1.35;;;;;;;;;;4140257;34;20103;-60
2022/05/12 06:14:11;;;;;;;3.00;2.00;;;;;;;;;;4128002;34;20123;-58
2022/05/12 06:16:37;;;;;;;5.22;1.77;;;;;;;;;;4140037;34;20111;-58
2022/05/12 06:19:04;;;;;;;2.08;1.75;;;;;;;;;;4140389;34;20547;-59
2022/05/12 06:21:30;;;;;;;3.45;2.00;;;;;;;;;;4140103;34;20111;-59
2022/05/12 06:23:56;;;;;;;2.75;1.83;;;;;;;;;;4138863;34;20123;-58
2022/05/12 06:26:23;;;;;;;2.70;2.10;;;;;;;;;;4127411;34;20146;-58
2022/05/12 06:28:49;;;;;;;2.20;2.00;;;;;;;;;;4140153;34;20500;-58
2022/05/12 06:31:24;;;;;;;3.50;2.90;;;;;;;;;;4139899;34;20554;-57
2022/05/12 06:33:51;;;;;;;3.28;1.87;;;;;;;;;;4139899;34;20119;-58
2022/05/12 06:36:17;;;;;;;3.65;1.80;;;;;;;;;;4139852;34;20112;-57
2022/05/12 06:38:43;;;;;;;3.03;2.20;;;;;;;;;;4138508;34;20115;-59
2022/05/12 06:41:09;;;;;;;27.45;1.90;;;;;;;;;;4139856;34;20122;-61
2022/05/12 06:43:36;;;;;;;1.30;1.20;;;;;;;;;;4139800;34;20199;-60
2022/05/12 06:46:03;;;;;;;1.37;1.27;;;;;;;;;;4139848;34;20418;-59
2022/05/12 06:48:29;;;;;;;1.60;1.50;;;;;;;;;;4127280;34;20540;-58
2022/05/12 06:50:55;;;;;;;1.58;1.48;;;;;;;;;;4139850;34;20194;-59
2022/05/12 06:53:22;;;;;;;2.90;1.33;;;;;;;;;;4139972;34;20468;-60
2022/05/12 06:55:48;;;;;;;1.73;1.35;;;;;;;;;;4139757;34;20195;-60
2022/05/12 06:58:17;;;;;;;2.10;1.45;;;;;;;;;;4139639;34;20239;-58
2022/05/12 07:00:44;;;;;;;1.45;1.35;;;;;;;;;;4139640;34;20119;-59
2022/05/12 07:03:12;;;;;;;1.50;1.40;;;;;;;;;;4139414;34;20116;-58
2022/05/12 07:05:40;;;;;;;1.40;1.30;;;;;;;;;;4136644;34;20117;-63
2022/05/12 07:08:06;;;;;;;1.48;1.30;;;;;;;;;;4137305;34;20555;-64
2022/05/12 07:10:33;;;;;;;1.00;1.00;;;;;;;;;;4137318;34;20208;-63
2022/05/12 07:12:59;;;;;;;1.48;1.17;;;;;;;;;;4137225;34;20107;-63
2022/05/12 07:15:27;;;;;;;1.50;1.40;;;;;;;;;;4137165;34;20107;-64
2022/05/12 07:17:55;;;;;;;1.10;1.00;;;;;;;;;;4137096;34;20133;-65
2022/05/12 07:28:37;;;;;;;3.97;2.10;;;;;;;;;;4137271;34;20442;-62
2022/05/12 07:31:05;;;;;;;3.12;1.90;;;;;;;;;;4137155;34;20107;-62
2022/05/12 07:33:35;;;;;;;2.75;1.90;;;;;;;;;;4136930;34;20500;-62
2022/05/12 07:36:04;;;;;;;1.50;1.40;;;;;;;;;;4137344;34;20104;-62
2022/05/12 07:38:30;;;;;;;5.22;1.77;;;;;;;;;;4124409;34;20394;-63
2022/05/12 07:40:56;;;;;;;1.60;1.50;;;;;;;;;;4137589;34;20660;-63
2022/05/12 07:43:22;;;;;;;1.85;1.42;;;;;;;;;;4137341;34;20108;-65
2022/05/12 07:45:48;;;;;;;1.58;1.27;;;;;;;;;;4137311;34;20103;-61
2022/05/12 07:48:15;;;;;;;1.45;1.35;;;;;;;;;;4137467;34;20131;-64
2022/05/12 07:50:41;;;;;;;2.08;1.40;;;;;;;;;;4137092;34;20537;-64
2022/05/12 07:53:07;;;;;;;2.00;1.80;;;;;;;;;;4136990;34;20156;-63
2022/05/12 07:55:35;;;;;;;2.65;1.60;;;;;;;;;;4136955;34;20540;-63
2022/05/12 07:58:03;;;;;;;3.55;1.87;;;;;;;;;;4137141;34;20096;-61
2022/05/12 08:00:30;;;;;;;3.40;1.55;;;;;;;;;;4136947;34;20317;-64
2022/05/12 08:02:57;;;;;;;1.85;1.73;;;;;;;;;;4136883;34;20117;-64
2022/05/12 08:05:23;;;;;;;2.58;1.40;;;;;;;;;;4136921;34;20123;-62
2022/05/12 08:07:50;;;;;;;1.60;1.50;;;;;;;;;;4136925;34;20126;-61
2022/05/12 08:10:16;;;;;;;1.95;1.30;;;;;;;;;;4124472;34;20518;-60
2022/05/12 08:12:42;;;;;;;1.33;1.23;;;;;;;;;;4124237;34;20123;-62
2022/05/12 08:15:09;;;;;;;3.05;1.35;;;;;;;;;;4136917;34;20115;-62
2022/05/12 08:17:36;;;;;;;0.95;0.95;;;;;;;;;;4136947;34;20116;-63
2022/05/12 08:20:05;;;;;;;1.17;1.17;;;;;;;;;;4124645;34;20102;-62
2022/05/12 08:22:32;;;;;;;1.10;1.10;;;;;;;;;;4137219;34;20280;-63
2022/05/12 08:24:58;;;;;;;3.45;1.30;;;;;;;;;;4136817;34;20186;-63
2022/05/12 08:27:25;;;;;;;1.25;1.15;;;;;;;;;;4136716;34;20131;-62
2022/05/12 08:29:52;;;;;;;0.95;0.95;;;;;;;;;;4137045;34;20106;-63
2022/05/12 08:32:18;;;;;;;1.35;1.25;;;;;;;;;;4136571;34;20532;-63
2022/05/12 08:34:44;;;;;;;2.97;1.35;;;;;;;;;;4136684;34;20527;-63
2022/05/12 08:37:11;;;;;;;1.20;1.10;;;;;;;;;;4136518;34;20112;-64
2022/05/12 08:39:38;;;;;;;1.27;1.20;;;;;;;;;;4124194;34;20114;-63
2022/05/12 08:42:14;;;;;;;3.53;1.10;;;;;;;;;;4136605;34;20209;-63
2022/05/12 08:44:40;;;;;;;1.20;1.10;;;;;;;;;;4135518;34;20224;-62
2022/05/12 08:47:12;;;;;;;1.20;1.10;;;;;;;;;;4136639;34;20142;-63
2022/05/12 08:49:50;;;;;;;1.10;1.00;;;;;;;;;;4136549;34;20099;-62
2022/05/12 08:52:28;;;;;;;1.37;1.20;;;;;;;;;;4136473;34;20184;-64
2022/05/12 08:55:08;;;;;;;2.05;1.80;;;;;;;;;;4136839;34;20107;-63
2022/05/12 08:57:38;;;;;;;2.50;1.42;;;;;;;;;;4136337;34;20112;-62
2022/05/12 09:00:08;;;;;;;2.20;1.27;;;;;;;;;;4136553;34;20448;-64
2022/05/12 09:02:46;;;;;;;1.08;1.00;;;;;;;;;;4136566;34;20219;-63
2022/05/12 09:05:18;;;;;;;1.37;1.27;;;;;;;;;;4136370;34;20134;-63
2022/05/12 09:08:03;;;;;;;1.60;1.15;;;;;;;;;;4136320;34;20127;-63
2022/05/12 09:10:43;;;;;;;1.15;1.02;;;;;;;;;;4136555;34;20464;-64
2022/05/12 09:13:16;;;;;;;1.60;1.37;;;;;;;;;;4136516;34;20232;-64
2022/05/12 09:15:56;;;;;;;1.00;1.00;;;;;;;;;;4136259;34;20107;-64
2022/05/12 09:18:29;;;;;;;1.08;1.05;;;;;;;;;;4123790;34;20095;-62
2022/05/12 09:21:00;;;;;;;1.20;1.20;;;;;;;;;;4136263;34;20103;-64
2022/05/12 09:23:26;;;;;;;1.30;1.20;;;;;;;;;;4136278;34;20183;-64
2022/05/12 09:25:52;;;;;;;1.23;1.00;;;;;;;;;;4123843;34;20512;-64
2022/05/12 09:28:27;;;;;;;1.37;1.27;;;;;;;;;;4134064;34;20191;-64
2022/05/12 09:31:01;;;;;;;1.08;1.08;;;;;;;;;;4136192;34;20123;-65
2022/05/12 09:33:35;;;;;;;1.60;1.37;;;;;;;;;;4136018;34;20119;-64
2022/05/12 09:36:08;;;;;;;1.17;1.08;;;;;;;;;;4134823;34;20196;-64
2022/05/12 09:38:41;;;;;;;2.40;1.10;;;;;;;;;;4136098;34;20194;-64
2022/05/12 09:41:22;;;;;;;1.45;1.35;;;;;;;;;;4136074;34;20120;-64
2022/05/12 09:43:53;;;;;;;1.40;1.30;;;;;;;;;;4135990;34;20138;-64
2022/05/12 09:46:23;;;;;;;1.10;1.10;;;;;;;;;;4123809;34;20137;-64
2022/05/12 09:48:50;;;;;;;1.42;1.33;;;;;;;;;;4123473;34;20217;-63
2022/05/12 09:51:42;;;;;;;1.85;1.12;;;;;;;;;;4123421;34;20563;-63
2022/05/12 09:54:28;;;;;;;2.53;1.30;;;;;;;;;;4135283;34;20541;-63
2022/05/12 09:57:23;;;;;;;1.10;1.10;;;;;;;;;;4135883;34;20109;-64
2022/05/12 09:59:55;;;;;;;1.67;1.12;;;;;;;;;;4134790;34;20146;-64
2022/05/12 10:08:21;;;;;;;;;;;;;;;;;;4125602;34;20186;-62
2022/05/12 10:10:53;;;;;;;3.15;1.52;;;;;;;;;;4124054;34;20007;-62
2022/05/12 10:13:47;;;;;;;1.30;1.20;;;;;;;;;;4123591;34;20122;-62
2022/05/12 10:16:16;;;;;;;1.60;1.50;;;;;;;;;;4136191;34;20115;-64
2022/05/12 10:18:46;;;;;;;1.52;1.42;;;;;;;;;;4123135;34;20513;-64
2022/05/12 10:21:30;;;;;;;1.90;1.77;;;;;;;;;;4130912;34;20212;-63
2022/05/12 10:24:25;;;;;;;3.72;1.60;;;;;;;;;;4119151;34;20134;-63
2022/05/12 10:26:56;;;;;;;1.20;1.20;;;;;;;;;;4129273;34;20210;-64
2022/05/12 10:29:25;;;;;;;1.27;1.20;;;;;;;;;;4134187;34;20531;-63
2022/05/12 10:32:03;;;;;;;2.12;1.60;;;;;;;;;;4135563;34;20118;-63
2022/05/12 10:34:41;;;;;;;2.67;1.20;;;;;;;;;;4109945;34;20513;-62
2022/05/12 10:37:17;;;;;;;2.70;1.58;;;;;;;;;;4122728;34;20123;-63
2022/05/12 10:40:10;;;;;;;1.48;1.37;;;;;;;;;;4124520;34;20107;-64
2022/05/12 10:42:42;;;;;;;4.57;1.30;;;;;;;;;;4137749;34;20123;-64
2022/05/12 10:45:43;;;;;;;1.48;1.30;;;;;;;;;;4136112;34;20527;-66
2022/05/12 10:48:49;;;;;;;1.30;1.20;;;;;;;;;;4129718;34;20119;-64
2022/05/12 10:51:20;;;;;;;1.37;1.27;;;;;;;;;;4116394;34;20475;-63
2022/05/12 10:53:51;;;;;;;1.40;1.12;;;;;;;;;;4137812;34;20150;-64
2022/05/12 10:56:23;;;;;;;1.40;1.30;;;;;;;;;;4135883;34;20203;-63
2022/05/12 10:59:07;;;;;;;2.22;1.25;;;;;;;;;;4124903;34;20107;-66
2022/05/12 11:01:44;;;;;;;4.62;1.20;;;;;;;;;;4137359;34;20123;-64
2022/05/12 11:04:46;;;;;;;1.25;1.25;;;;;;;;;;4137411;34;20514;-66
2022/05/12 11:07:24;;;;;;;1.10;1.10;;;;;;;;;;4136025;34;20103;-64
2022/05/12 11:10:17;;;;;;;2.00;1.30;;;;;;;;;;4137670;34;20208;-65
2022/05/12 11:12:47;;;;;;;1.00;1.00;;;;;;;;;;4137092;34;20106;-64
2022/05/12 11:15:25;;;;;;;1.52;1.40;;;;;;;;;;4135922;34;20103;-63
2022/05/12 11:18:04;;;;;;;3.33;1.35;;;;;;;;;;4124816;34;20111;-64
2022/05/12 11:20:36;;;;;;;1.30;1.30;;;;;;;;;;4137301;34;20595;-65
2022/05/12 11:23:19;;;;;;;1.87;1.25;;;;;;;;;;4133182;34;20208;-65
2022/05/12 11:25:52;;;;;;;1.48;1.23;;;;;;;;;;4129200;34;20539;-64
2022/05/12 11:31:50;;;;;;;1.50;1.40;;;;;;;;;;4142118;34;20130;-65
2022/05/12 11:34:18;;;;;;;2.30;1.92;;;;;;;;;;4146924;34;20124;-64
2022/05/12 11:36:50;;;;;;;4.75;3.10;;;;;;;;;;4140868;34;20108;-65
2022/05/12 11:39:54;;;;;;;5.28;3.50;;;;;;;;;;4137028;34;20125;-65
2022/05/12 11:42:22;;;;;;;3.78;2.42;;;;;;;;;;4128376;34;20223;-64
2022/05/12 11:45:04;;;;;;;1.83;1.50;;;;;;;;;;4135660;34;20621;-64
2022/05/12 11:47:52;;;;;;;3.05;1.90;;;;;;;;;;4124476;34;20126;-64
2022/05/12 11:50:30;;;;;;;2.37;1.90;;;;;;;;;;4124196;34;20127;-64
2022/05/12 11:52:59;;;;;;;1.80;1.70;;;;;;;;;;4137181;34;20094;-64
2022/05/12 11:55:35;;;;;;;2.70;1.60;;;;;;;;;;4124717;34;20103;-64
2022/05/12 11:58:11;;;;;;;2.50;1.23;;;;;;;;;;4137418;34;20472;-64
2022/05/12 12:00:37;;;;;;;3.33;1.50;;;;;;;;;;4135847;34;20460;-64
2022/05/12 12:03:15;;;;;;;2.12;1.37;;;;;;;;;;4136868;34;20115;-64
2022/05/12 12:05:41;;;;;;;1.30;1.20;;;;;;;;;;4137105;34;20104;-63
2022/05/12 12:08:10;;;;;;;1.30;1.20;;;;;;;;;;4136885;34;20208;-62
2022/05/12 12:10:38;;;;;;;1.10;1.10;;;;;;;;;;4136876;34;20216;-65
2022/05/12 12:13:33;;;;;;;1.35;1.20;;;;;;;;;;4124388;34;20202;-65
2022/05/12 12:16:09;;;;;;;1.77;1.58;;;;;;;;;;4136908;34;20186;-61
2022/05/12 12:18:34;;;;;;;;;;;;;;;;;;4137190;34;20131;-63
2022/05/12 12:21:28;;;;;;;1.45;1.33;;;;;;;;;;4136998;34;20096;-63
2022/05/12 12:24:08;;;;;;;1.45;1.30;;;;;;;;;;4135388;34;20191;-62
2022/05/12 12:26:37;;;;;;;2.53;1.33;;;;;;;;;;4136883;34;20123;-63
2022/05/12 12:29:09;;;;;;;2.05;1.40;;;;;;;;;;4136838;34;20227;-63
2022/05/12 12:31:43;;;;;;;1.40;1.30;;;;;;;;;;4136673;34;20115;-64
2022/05/12 12:34:26;;;;;;;1.70;1.25;;;;;;;;;;4136758;34;20142;-63
2022/05/12 12:36:59;;;;;;;2.47;1.60;;;;;;;;;;4124324;34;20132;-61
2022/05/12 12:39:39;;;;;;;2.10;1.67;;;;;;;;;;4113354;34;20098;-63
2022/05/12 12:42:19;;;;;;;1.40;1.30;;;;;;;;;;4124264;34;20191;-61
2022/05/12 12:44:52;;;;;;;2.08;1.60;;;;;;;;;;4124108;34;20099;-62
2022/05/12 12:47:26;;;;;;;2.40;1.67;;;;;;;;;;4124211;34;20269;-63
2022/05/12 12:50:17;;;;;;;2.67;1.20;;;;;;;;;;4136909;34;20103;-63
2022/05/12 12:52:48;;;;;;;2.30;1.33;;;;;;;;;;4136751;34;20100;-62
2022/05/12 12:58:03;;;;;;;1.35;1.25;;;;;;;;;;4136414;34;20131;-63
2022/05/12 13:00:34;;;;;;;1.50;1.40;;;;;;;;;;4136449;34;20202;-63
2022/05/12 13:03:04;;;;;;;1.60;1.30;;;;;;;;;;4123035;34;20099;-62
2022/05/12 13:05:31;;;;;;;1.50;1.40;;;;;;;;;;4136397;34;20120;-62
2022/05/12 13:08:01;;;;;;;1.77;1.60;;;;;;;;;;4136527;34;20651;-63
2022/05/12 13:10:29;;;;;;;3.17;1.95;;;;;;;;;;4136275;34;20223;-63
2022/05/12 13:13:02;;;;;;;1.58;1.48;;;;;;;;;;4136544;34;20118;-63
2022/05/12 13:15:32;;;;;;;2.45;1.40;;;;;;;;;;4136165;34;20223;-62
2022/05/12 13:18:04;;;;;;;1.77;1.30;;;;;;;;;;4136271;34;20111;-63
2022/05/12 13:20:40;;;;;;;1.58;1.42;;;;;;;;;;4136286;34;20111;-60
2022/05/12 13:23:08;;;;;;;1.75;1.27;;;;;;;;;;4136327;34;20127;-60
2022/05/12 13:25:37;;;;;;;1.87;1.40;;;;;;;;;;4136262;34;20141;-62
2022/05/12 13:28:07;;;;;;;2.62;1.40;;;;;;;;;;4135100;34;20473;-61
2022/05/12 13:30:38;;;;;;;2.30;1.50;;;;;;;;;;4136182;34;20203;-61
2022/05/12 13:33:25;;;;;;;2.72;1.15;;;;;;;;;;4136376;34;20199;-62
2022/05/12 13:35:54;;;;;;;1.65;1.50;;;;;;;;;;4136193;34;20115;-64
2022/05/12 13:38:21;;;;;;;1.90;1.45;;;;;;;;;;4136140;34;20115;-63
2022/05/12 13:40:57;;;;;;;1.50;1.40;;;;;;;;;;4136320;34;20107;-64
2022/05/12 13:43:22;;;;;;;1.50;1.40;;;;;;;;;;4136356;34;20134;-64
2022/05/12 13:46:03;;;;;;;1.58;1.48;;;;;;;;;;4135897;34;20501;-64
2022/05/12 13:48:29;;;;;;;1.62;1.50;;;;;;;;;;4134690;34;20645;-64
2022/05/12 13:50:56;;;;;;;2.70;1.50;;;;;;;;;;4135978;34;20119;-64
2022/05/12 13:53:34;;;;;;;2.05;1.42;;;;;;;;;;4134571;34;20134;-64
2022/05/12 13:56:13;;;;;;;1.30;1.30;;;;;;;;;;4133698;34;20114;-65
2022/05/12 13:58:51;;;;;;;1.83;1.60;;;;;;;;;;4135995;34;20220;-65
2022/05/12 14:01:29;;;;;;;1.42;1.33;;;;;;;;;;4135921;34;20195;-65
2022/05/12 14:04:11;;;;;;;1.80;1.50;;;;;;;;;;4123897;34;20248;-65
2022/05/12 14:06:51;;;;;;;3.80;1.77;;;;;;;;;;4135782;34;20168;-65
2022/05/12 14:09:24;;;;;;;2.00;1.77;;;;;;;;;;4123966;34;20556;-65
2022/05/12 14:12:01;;;;;;;2.62;2.03;;;;;;;;;;4123241;34;20521;-63
2022/05/12 14:20:16;;;;;;;1.70;1.60;;;;;;;;;;4123844;34;20126;-64
2022/05/12 14:22:43;;;;;;;2.08;1.50;;;;;;;;;;4125519;34;20115;-64
2022/05/12 14:25:10;;;;;;;1.90;1.70;;;;;;;;;;4137780;34;20126;-65
2022/05/12 14:27:36;;;;;;;2.53;1.77;;;;;;;;;;4125127;34;20762;-65
2022/05/12 14:30:04;;;;;;;1.73;1.62;;;;;;;;;;4137600;34;20190;-64
2022/05/12 14:32:43;;;;;;;1.45;1.35;;;;;;;;;;4137595;34;20115;-64
2022/05/12 14:35:09;;;;;;;2.20;1.60;;;;;;;;;;4125132;34;20127;-65
2022/05/12 14:37:36;;;;;;;3.28;1.45;;;;;;;;;;4137526;34;20135;-65
2022/05/12 14:40:04;;;;;;;1.60;1.50;;;;;;;;;;4125170;34;20457;-65
2022/05/12 14:42:30;;;;;;;3.60;1.50;;;;;;;;;;4136301;34;20540;-65
2022/05/12 14:44:56;;;;;;;1.60;1.50;;;;;;;;;;4137605;34;20104;-65
2022/05/12 14:47:25;;;;;;;2.03;1.80;;;;;;;;;;4136068;34;20112;-65
2022/05/12 14:49:51;;;;;;;2.45;2.00;;;;;;;;;;4136407;34;20195;-68
2022/05/12 14:52:21;;;;;;;1.50;1.40;;;;;;;;;;4136028;34;20124;-66
2022/05/12 14:54:51;;;;;;;1.50;1.40;;;;;;;;;;4137608;34;20183;-69
2022/05/12 14:57:18;;;;;;;1.70;1.55;;;;;;;;;;4136213;34;20115;-65
2022/05/12 14:59:44;;;;;;;1.67;1.17;;;;;;;;;;4137508;34;20512;-66
2022/05/12 15:02:15;;;;;;;1.02;1.02;;;;;;;;;;4137773;34;20096;-65
2022/05/12 15:04:41;;;;;;;1.15;1.10;;;;;;;;;;4136373;34;20201;-66
2022/05/12 15:07:07;;;;;;;1.30;1.20;;;;;;;;;;4137790;34;20203;-66
2022/05/12 15:09:33;;;;;;;1.40;1.12;;;;;;;;;;4137420;34;20194;-65
2022/05/12 15:11:59;;;;;;;1.30;1.20;;;;;;;;;;4137337;34;20223;-67
2022/05/12 15:14:26;;;;;;;1.90;1.30;;;;;;;;;;4137454;34;20131;-67
2022/05/12 15:16:52;;;;;;;3.58;1.87;;;;;;;;;;4137142;34;20115;-67
2022/05/12 15:19:18;;;;;;;2.78;2.12;;;;;;;;;;4124720;34;20135;-67
2022/05/12 15:21:44;;;;;;;3.12;2.37;;;;;;;;;;4137118;34;20119;-66
2022/05/12 15:24:11;;;;;;;6.90;2.47;;;;;;;;;;4137318;34;20130;-64
2022/05/12 15:26:40;;;;;;;2.97;2.15;;;;;;;;;;4136509;34;20114;-62
2022/05/12 15:29:06;;;;;;;2.70;2.08;;;;;;;;;;4137639;34;20095;-65
2022/05/12 15:31:32;;;;;;;2.20;2.00;;;;;;;;;;4136013;34;20107;-64
2022/05/12 15:33:58;;;;;;;4.90;2.53;;;;;;;;;;4124497;34;20202;-65
2022/05/12 15:36:35;;;;;;;3.10;2.40;;;;;;;;;;4137117;34;20530;-64
2022/05/12 15:39:01;;;;;;;4.25;2.40;;;;;;;;;;4137041;34;20099;-65
2022/05/12 15:41:27;;;;;;;5.18;3.53;;;;;;;;;;4124393;34;20445;-63
2022/05/12 15:43:53;;;;;;;4.60;2.53;;;;;;;;;;4137180;34;20449;-63
2022/05/12 15:46:23;;;;;;;2.42;1.83;;;;;;;;;;4124412;34;20185;-64
2022/05/12 15:48:56;;;;;;;1.48;1.33;;;;;;;;;;4136116;34;20204;-63
2022/05/12 15:51:22;;;;;;;1.90;1.42;;;;;;;;;;4124513;34;20530;-62
2022/05/12 15:53:48;;;;;;;1.62;1.35;;;;;;;;;;4137186;34;20143;-62
2022/05/12 15:56:15;;;;;;;1.87;1.50;;;;;;;;;;4137040;34;20119;-66
2022/05/12 15:58:41;;;;;;;3.10;1.60;;;;;;;;;;4137038;34;20118;-67
2022/05/12 16:01:09;;;;;;;2.22;1.70;;;;;;;;;;4137020;34;20515;-66
2022/05/12 16:03:35;;;;;;;2.20;1.45;;;;;;;;;;4137240;34;20135;-64